Latest Weather Observations for Georgetown Airport

IDQ60801

Issued at 6:22 am EST Friday 22 October 2021 (issued every 10 minutes, with the page automatically refreshed every 10 minutes)

About weather observations | Map of weather stations | Latest weather observations for QLD | Other Formats
Station Details ID: 030124 Name: GEORGETOWN AIRPORT Lat: -18.30 Lon: 143.53 Height: 301.77 m
Data from the previous 72 hours. | See also: Recent months at Georgetown Airport
Date/Time
EST
Temp
°C
App
Temp
°C
Dew
Point
°C
Rel
Hum
%
Delta-T
°C
Wind Press
QNH
hPa
Press
MSL
hPa
Rain since
9am
mm
Dir  Spd
km/h
Gust
km/h
Spd
kts
Gust
kts
22/06:00am 21.6 23.6 15.9 70 3.5 CALM 0 0 0 0 1012.7 1010.7 0.0
22/05:30am 21.7 23.4 15.3 67 3.9 CALM 0 0 0 0 1012.3 1010.3 0.0
22/05:00am 22.8 24.5 15.1 62 4.6 CALM 0 0 0 0 1011.8 1009.7 0.0
22/04:30am 23.8 24.4 15.3 59 5.2 NNW 6 9 3 5 1011.5 1009.4 0.0
22/04:00am 24.5 24.6 15.4 57 5.6 NW 9 15 5 8 1011.4 1009.3 0.0
22/03:30am 22.4 23.2 16.4 69 3.7 WNW 7 9 4 5 1010.9 1008.8 0.0
22/03:00am 23.1 25.3 16.6 67 4.0 CALM 0 0 0 0 1010.6 1008.6 0.0
22/02:30am 23.7 25.6 16.7 65 4.3 SSW 2 7 1 4 1010.6 1008.6 0.0
22/02:00am 23.9 25.3 16.4 63 4.6 W 4 7 2 4 1010.6 1008.6 0.0
22/01:30am 24.4 24.8 16.4 61 5.0 S 9 11 5 6 1010.7 1008.7 0.0
22/01:00am 24.7 26.8 16.2 59 5.3 CALM 0 0 0 0 1011.1 1009.0 0.0
22/12:30am 25.6 27.6 15.9 55 6.0 CALM 0 0 0 0 1011.2 1009.1 0.0
22/12:00am 25.3 26.2 16.7 59 5.4 NNE 7 13 4 7 1011.3 1009.2 0.0
 
Date/Time
EST
Temp
°C
App
Temp
°C
Dew
Point
°C
Rel
Hum
%
Delta-T
°C
Wind Press
QNH
hPa
Press
MSL
hPa
Rain since
9am
mm
Dir  Spd
km/h
Gust
km/h
Spd
kts
Gust
kts
21/11:30pm 25.1 27.0 16.8 60 5.2 ESE 2 7 1 4 1011.3 1009.2 0.0
21/11:00pm 25.4 26.3 16.5 57 5.5 E 7 13 4 7 1011.1 1009.0 0.0
21/10:30pm 25.7 26.0 16.0 55 6.0 ESE 9 17 5 9 1011.4 1009.3 0.0
21/10:00pm 26.4 26.4 15.1 49 6.9 S 9 17 5 9 1010.9 1008.8 0.0
21/09:30pm 24.9 22.7 16.9 61 5.0 SW 24 32 13 17 1011.5 1009.4 0.0
21/09:00pm 24.4 21.3 17.4 65 4.4 WSW 30 46 16 25 1011.9 1009.9 0.0
21/08:55pm 24.1 21.1 17.8 68 4.0 WSW 30 48 16 26 1012.0 1010.0 0.0
21/08:30pm 24.3 21.1 18.2 68 3.9 WSW 32 46 17 25 1012.6 1010.6 0.0
21/08:00pm 25.1 21.8 18.3 66 4.4 SW 33 44 18 24 1012.1 1010.1 0.0
21/07:34pm 25.3 20.8 18.2 64 4.5 SW 39 57 21 31 1011.5 1009.4 0.0
21/07:30pm 25.8 21.7 18.2 63 4.9 SW 37 56 20 30 1011.4 1009.3 0.0
21/07:26pm 25.9 22.1 18.1 62 5.0 SW 35 54 19 29 1011.3 1009.2 0.0
21/07:24pm 25.9 22.2 18.3 63 4.9 SW 35 52 19 28 1011.2 1009.1 0.0
21/07:08pm 27.7 23.9 17.3 53 6.6 SW 33 59 18 32 1011.0 1008.9 0.0
21/07:03pm 28.4 25.5 17.0 50 7.2 SW 28 54 15 29 1010.9 1008.8 0.0
21/07:00pm 29.0 26.3 16.5 46 7.9 SW 26 41 14 22 1010.7 1008.7 0.0
21/06:58pm 29.1 25.9 16.3 46 8.1 SSW 28 48 15 26 1010.6 1008.6 0.0
21/06:33pm 32.4 27.7 12.1 29 12.1 SW 28 46 15 25 1009.1 1007.1 0.0
21/06:30pm 32.3 26.8 12.0 29 12.1 SW 32 48 17 26 1008.9 1006.9 0.0
21/06:23pm 31.7 26.3 11.0 28 12.1 SW 30 48 16 26 1008.8 1006.7 0.0
21/06:17pm 31.2 26.0 11.6 30 11.6 SW 30 48 16 26 1008.9 1006.9 0.0
21/06:00pm 33.3 29.1 11.2 26 13.1 SW 24 43 13 23 1008.4 1006.3 0.0
21/05:47pm 34.1 31.8 11.9 26 13.3 SSW 15 35 8 19 1008.2 1006.1 0.0
21/05:30pm 36.2 33.7 11.1 22 15.0 W 15 20 8 11 1008.0 1005.9 0.0
21/05:00pm 36.5 34.1 11.3 22 15.2 WNW 15 20 8 11 1007.5 1005.4 0.0
21/04:30pm 37.2 34.9 10.5 20 15.9 WNW 13 20 7 11 1007.4 1005.3 0.0
21/04:00pm 37.7 35.5 10.9 20 16.1 WNW 13 20 7 11 1007.1 1005.1 0.0
21/03:30pm 38.4 35.3 9.0 17 17.2 WSW 15 28 8 15 1007.1 1005.1 0.0
21/03:00pm 38.3 35.8 9.8 18 16.9 WNW 13 22 7 12 1007.4 1005.3 0.0
21/02:30pm 38.9 37.3 10.3 18 17.1 W 9 20 5 11 1008.0 1005.9 0.0
21/02:00pm 38.2 34.9 9.7 18 16.9 W 17 26 9 14 1008.6 1006.5 0.0
21/01:30pm 37.7 34.4 10.9 20 16.1 WNW 19 26 10 14 1009.1 1007.1 0.0
21/01:00pm 37.2 35.1 11.2 21 15.7 NW 13 26 7 14 1009.6 1007.6 0.0
21/12:30pm 36.6 35.4 12.8 24 14.6 NNW 11 24 6 13 1010.2 1008.2 0.0
21/12:00pm 35.2 34.2 13.4 27 13.4 NNW 11 20 6 11 1010.9 1008.8 0.0
21/11:30am 34.6 33.8 14.0 29 12.8 NW 11 19 6 10 1011.4 1009.3 0.0
21/11:00am 34.3 33.9 15.2 31 12.0 N 11 22 6 12 1011.8 1009.7 0.0
21/10:30am 32.8 31.9 14.9 34 11.2 NW 13 22 7 12 1012.2 1010.2 0.0
21/10:00am 32.4 31.7 15.4 36 10.7 NW 13 20 7 11 1012.4 1010.4 0.0
21/09:30am 31.6 30.9 15.5 37 10.1 NW 13 19 7 10 1012.8 1010.8 0.0
21/09:00am 30.3 30.7 19.0 50 7.4 NW 15 20 8 11 1012.9 1010.9 0.0
21/08:30am 29.6 30.4 19.9 56 6.4 NNW 15 20 8 11 1012.7 1010.7 0.0
21/08:00am 27.8 28.3 19.3 60 5.6 N 15 20 8 11 1012.3 1010.3 0.0
21/07:30am 27.0 28.0 19.4 63 5.0 NNE 13 17 7 9 1012.2 1010.2 0.0
21/07:00am 25.1 25.5 17.3 62 4.9 NE 11 15 6 8 1012.0 1010.0 0.0
21/06:30am 22.6 23.7 15.7 65 4.2 N 4 11 2 6 1011.6 1009.5 0.0
21/06:00am 20.7 22.3 15.0 70 3.4 CALM 0 0 0 0 1011.0 1008.9 0.0
21/05:30am 20.8 22.4 14.9 69 3.5 CALM 0 0 0 0 1010.7 1008.7 0.0
21/05:00am 21.1 22.8 15.2 69 3.5 CALM 0 0 0 0 1010.3 1008.3 0.0
21/04:30am 21.4 23.0 15.0 67 3.8 CALM 0 0 0 0 1010.2 1008.2 0.0
21/04:00am 21.6 21.9 15.0 66 4.0 SE 7 9 4 5 1010.0 1008.0 0.0
21/03:30am 22.4 23.4 15.3 64 4.3 SSW 4 7 2 4 1010.2 1008.2 0.0
21/03:00am 22.7 24.4 15.3 63 4.5 CALM 0 0 0 0 1010.1 1008.1 0.0
21/02:30am 23.3 25.1 15.4 61 4.8 CALM 0 0 0 0 1010.2 1008.2 0.0
21/02:00am 24.1 25.8 15.3 58 5.4 CALM 0 0 0 0 1010.4 1008.4 0.0
21/01:30am 24.9 26.6 15.2 54 5.9 CALM 0 0 0 0 1010.6 1008.6 0.0
21/01:00am 25.9 26.6 15.6 53 6.3 NE 6 7 3 4 1010.7 1008.7 0.0
21/12:30am 27.7 28.4 16.0 49 7.3 W 7 9 4 5 1011.0 1008.9 0.0
21/12:00am 28.6 28.8 15.8 45 8.0 WNW 9 11 5 6 1011.2 1009.1 0.0
 
Date/Time
EST
Temp
°C
App
Temp
°C
Dew
Point
°C
Rel
Hum
%
Delta-T
°C
Wind Press
QNH
hPa
Press
MSL
hPa
Rain since
9am
mm
Dir  Spd
km/h
Gust
km/h
Spd
kts
Gust
kts
20/11:30pm 29.5 29.4 16.0 44 8.5 WNW 11 17 6 9 1011.2 1009.1 0.0
20/11:00pm 30.2 29.5 15.5 41 9.2 W 13 20 7 11 1011.2 1009.1 0.0
20/10:30pm 30.9 28.2 15.7 39 9.5 W 24 35 13 19 1011.1 1009.0 0.0
20/10:00pm 31.5 29.7 15.9 39 9.8 W 20 30 11 16 1010.9 1008.8 0.0
20/09:30pm 32.2 29.1 15.7 37 10.4 WNW 26 37 14 20 1010.3 1008.3 0.0
20/09:00pm 33.1 30.8 15.6 35 11.1 WNW 22 32 12 17 1009.6 1007.6 0.0
20/08:30pm 30.5 28.3 6.4 22 13.0 WSW 7 11 4 6 1008.9 1006.9 0.0
20/08:00pm 32.3 29.2 5.7 19 14.4 SW 11 13 6 7 1008.8 1006.7 0.0
20/07:30pm 32.8 30.1 5.4 18 14.8 WSW 9 11 5 6 1008.5 1006.4 0.0
20/07:00pm 34.1 31.2 4.7 16 15.8 WSW 9 13 5 7 1008.3 1006.2 0.0
20/06:30pm 35.6 32.8 5.0 15 16.6 WSW 9 13 5 7 1008.0 1005.9 0.0
20/06:00pm 37.4 33.3 4.4 13 18.0 SW 15 24 8 13 1007.6 1005.5 0.0
20/05:30pm 38.7 34.6 4.2 12 18.8 SW 15 24 8 13 1007.2 1005.2 0.0
20/05:00pm 39.1 34.9 5.7 13 18.7 SW 17 32 9 17 1007.1 1005.1 0.0
20/04:30pm 39.5 35.4 6.0 13 18.8 W 17 26 9 14 1007.2 1005.2 0.0
20/04:00pm 39.3 35.5 5.8 13 18.8 WSW 15 24 8 13 1007.4 1005.3 0.0
20/03:30pm 38.2 33.7 7.0 15 17.7 WSW 20 32 11 17 1007.9 1005.8 0.0
20/03:17pm 38.5 33.3 7.3 15 17.8 WNW 24 65 13 35 1007.7 1005.6 0.0
20/03:00pm 38.0 36.0 8.7 17 17.1 W 9 19 5 10 1008.3 1006.2 0.0
20/02:30pm 38.7 34.0 9.3 17 17.3 W 24 37 13 20 1009.0 1007.0 0.0
20/02:00pm 38.5 34.1 9.1 17 17.3 WNW 22 32 12 17 1009.7 1007.7 0.0
20/01:30pm 38.4 35.2 9.9 18 16.9 WSW 17 33 9 18 1010.3 1008.3 0.0
20/01:00pm 38.0 35.5 9.6 18 16.8 WSW 13 32 7 17 1010.9 1008.8 0.0
20/12:30pm 37.0 34.5 12.4 23 15.0 NW 17 30 9 16 1011.5 1009.4 0.0
20/12:00pm 36.5 34.9 12.7 24 14.6 WNW 13 20 7 11 1012.2 1010.2 0.0
20/11:30am 35.5 34.0 13.1 26 13.8 NW 13 22 7 12 1012.8 1010.8 0.0
20/11:00am 34.7 33.5 14.0 28 12.8 NNW 13 24 7 13 1013.3 1011.3 0.0
20/10:30am 33.2 32.2 15.7 35 11.1 NW 15 24 8 13 1013.9 1011.9 0.0
20/10:00am 32.6 32.1 16.8 38 10.1 NW 15 20 8 11 1014.4 1012.3 0.0
20/09:30am 32.0 31.4 17.5 42 9.4 NW 17 24 9 13 1014.7 1012.6 0.0
20/09:00am 30.4 29.9 17.8 46 8.1 NNW 17 24 9 13 1015.0 1013.0 0.0
20/08:30am 29.3 28.4 17.8 50 7.4 NNW 19 26 10 14 1015.1 1013.1 0.0
20/08:00am 28.5 27.8 16.4 48 7.6 NW 15 22 8 12 1015.0 1013.0 0.0
20/07:30am 27.6 28.0 16.2 49 7.1 NW 9 15 5 8 1014.8 1012.7 0.0
20/07:00am 25.8 26.8 16.4 56 5.9 NNW 6 11 3 6 1014.6 1012.5 0.0
20/06:30am 23.8 24.3 13.9 54 5.9 N 4 9 2 5 1013.9 1011.9 0.0
20/06:00am 24.9 25.4 15.0 54 6.0 NNW 6 9 3 5 1013.4 1011.4 0.0
20/05:30am 25.5 25.5 15.2 53 6.3 NW 9 11 5 6 1013.0 1011.0 0.0
20/05:00am 24.5 23.7 12.8 48 6.8 NW 9 11 5 6 1012.7 1010.7 0.0
20/04:30am 23.3 22.8 10.7 45 7.1 NW 4 6 2 3 1012.3 1010.3 0.0
20/04:00am 25.1 23.9 10.2 39 8.4 NW 7 9 4 5 1012.0 1010.0 0.0
20/03:30am 26.0 24.4 10.2 37 8.9 NNW 9 11 5 6 1011.8 1009.7 0.0
20/03:00am 21.6 20.5 10.1 48 6.3 NW 6 9 3 5 1011.6 1009.5 0.0
20/02:30am 21.4 21.0 9.6 47 6.4 E 2 6 1 3 1011.7 1009.6 0.0
20/02:00am 23.0 22.3 10.1 44 7.2 SE 4 7 2 4 1011.8 1009.7 0.0
20/01:30am 24.9 23.7 9.6 38 8.5 ESE 6 9 3 5 1012.1 1010.1 0.0
20/01:00am 28.8 27.1 10.0 31 10.7 N 9 11 5 6 1012.4 1010.4 0.0
20/12:30am 29.3 27.2 9.9 30 11.1 N 11 15 6 8 1012.8 1010.8 0.0
20/12:00am 28.1 25.7 9.9 32 10.3 NNE 13 17 7 9 1012.8 1010.8 0.0
 
Date/Time
EST
Temp
°C
App
Temp
°C
Dew
Point
°C
Rel
Hum
%
Delta-T
°C
Wind Press
QNH
hPa
Press
MSL
hPa
Rain since
9am
mm
Dir  Spd
km/h
Gust
km/h
Spd
kts
Gust
kts
19/11:30pm 23.4 22.7 7.1 35 8.6 CALM 0 0 0 0 1013.1 1011.1 0.0
19/11:00pm 24.0 22.1 6.7 33 9.1 SSW 6 6 3 3 1012.9 1010.9 0.0
19/10:30pm 25.0 24.2 6.7 31 9.7 CALM 0 0 0 0 1012.9 1010.9 0.0
19/10:00pm 25.6 24.8 6.3 29 10.2 CALM 0 6 0 3 1012.7 1010.7 0.0
19/09:30pm 26.8 24.7 5.7 26 11.1 E 6 9 3 5 1012.4 1010.4 0.0
19/09:00pm 25.8 24.6 6.4 29 10.2 S 2 7 1 4 1012.1 1010.1 0.0
19/08:30pm 27.2 26.2 5.5 25 11.4 CALM 0 6 0 3 1011.7 1009.6 0.0
19/08:00pm 28.4 27.3 5.3 23 12.1 CALM 0 0 0 0 1011.5 1009.4 0.0
19/07:30pm 29.9 27.5 4.5 20 13.3 WNW 6 7 3 4 1011.2 1009.1 0.0
19/07:00pm 31.5 28.9 4.3 18 14.3 WNW 7 7 4 4 1010.9 1008.8 0.0
19/06:30pm 34.7 31.9 3.3 14 16.5 WSW 7 11 4 6 1010.5 1008.5 0.0
19/06:00pm 36.9 32.5 2.8 12 18.1 WSW 15 20 8 11 1010.2 1008.2 0.0
19/05:30pm 37.7 33.0 3.4 12 18.4 SW 17 22 9 12 1009.9 1007.9 0.0
19/05:00pm 38.2 34.8 6.0 14 18.0 SW 13 17 7 9 1009.8 1007.8 0.0
19/04:30pm 38.1 33.8 7.0 15 17.6 WSW 19 28 10 15 1009.8 1007.8 0.0
19/04:00pm 38.2 34.5 8.0 16 17.4 WSW 17 26 9 14 1010.0 1008.0 0.0
19/03:30pm 38.6 34.6 8.3 16 17.6 SW 19 30 10 16 1010.4 1008.4 0.0
19/03:00pm 38.2 34.3 7.0 15 17.7 SSW 17 30 9 16 1010.7 1008.7 0.0
19/02:30pm 39.0 36.0 7.7 15 18.0 W 13 28 7 15 1011.2 1009.1 0.0
19/02:00pm 38.0 34.9 8.7 17 17.0 W 15 28 8 15 1011.9 1009.9 0.0
19/01:30pm 38.1 36.2 10.5 19 16.5 SW 11 20 6 11 1012.5 1010.5 0.0
19/01:00pm 37.5 35.5 10.0 19 16.3 WNW 11 19 6 10 1013.1 1011.1 0.0
19/12:30pm 36.3 34.4 11.9 23 14.8 NNW 13 26 7 14 1013.5 1011.5 0.0
19/12:00pm 35.5 35.1 14.2 28 13.3 NW 9 17 5 9 1014.1 1012.1 0.0
19/11:30am 34.8 33.5 14.7 30 12.6 NW 15 22 8 12 1014.7 1012.6 0.0
19/11:00am 34.4 34.2 15.8 33 11.8 WNW 11 19 6 10 1015.3 1013.3 0.0
19/10:30am 33.1 34.1 16.9 38 10.4 NW 7 15 4 8 1015.9 1013.9 0.0
19/10:00am 32.1 32.7 17.6 42 9.4 N 11 17 6 9 1016.3 1014.3 0.0
19/09:30am 30.7 31.1 18.1 47 8.2 NNW 13 20 7 11 1016.6 1014.6 0.0
19/09:00am 30.1 30.4 18.8 50 7.4 NNE 15 24 8 13 1016.7 1014.7 0.0
19/08:30am 29.3 29.6 18.7 52 6.9 N 15 20 8 11 1016.7 1014.7 0.0
19/08:00am 28.2 28.0 18.6 56 6.2 N 17 22 9 12 1016.6 1014.6 0.0
19/07:30am 27.6 27.8 17.7 54 6.3 NE 13 17 7 9 1016.3 1014.3 0.0
19/07:00am 24.1 25.8 15.1 57 5.5 CALM 0 0 0 0 1015.9 1013.9 0.0
19/06:30am 20.4 20.9 11.6 57 4.9 CALM 0 4 0 2 1015.6 1013.6 0.0

Other formats

Comma delimited format used in spreadsheet applications
http://www.bom.gov.au/fwo/IDQ60801/IDQ60801.94274.axf

JavaScript Object Notation format (JSON) in row-major order
http://www.bom.gov.au/fwo/IDQ60801/IDQ60801.94274.json

Data quality

Most of these data are generated automatically and are frequently updated. Quality checks on data are not normally performed. It is possible for incorrect values to appear. Refer to information at About Latest Weather Observations and please check the disclaimer before using these data.